createdAt,value
2018-04-07T00:00:34.964Z,7.45
2018-04-07T00:03:03.339Z,6.12
2018-04-07T00:05:31.738Z,5.60
2018-04-07T00:08:00.148Z,9.13
2018-04-07T00:10:30.327Z,10.27
2018-04-07T00:12:58.746Z,6.57
2018-04-07T00:15:28.472Z,2.55
2018-04-07T00:17:57.633Z,4.85
2018-04-07T00:20:26.614Z,3.72
2018-04-07T00:22:56.676Z,2.80
2018-04-07T00:25:25.330Z,5.85
2018-04-07T00:27:53.942Z,13.07
2018-04-07T00:30:22.470Z,2.03
2018-04-07T00:32:51.219Z,8.85
2018-04-07T00:35:20.614Z,7.87
2018-04-07T00:37:49.157Z,5.82
2018-04-07T00:40:18.090Z,3.03
2018-04-07T00:42:46.556Z,10.88
2018-04-07T00:45:14.941Z,8.43
2018-04-07T00:47:44.578Z,2.78
2018-04-07T00:50:12.920Z,8.50
2018-04-07T00:52:53.089Z,8.50
2018-04-07T00:55:21.667Z,3.33
2018-04-07T00:57:50.573Z,4.87
2018-04-07T01:00:19.490Z,4.03
2018-04-07T01:02:48.664Z,5.07
2018-04-07T01:05:17.062Z,5.10
2018-04-07T01:07:48.430Z,4.25
2018-04-07T01:10:16.766Z,7.72
2018-04-07T01:12:45.185Z,2.50
2018-04-07T01:15:17.045Z,3.78
2018-04-07T01:17:45.588Z,9.93
2018-04-07T01:20:13.963Z,11.85
2018-04-07T01:22:43.436Z,5.40
2018-04-07T01:25:11.804Z,2.30
2018-04-07T01:27:40.198Z,4.32
2018-04-07T01:30:14.708Z,5.53
2018-04-07T01:32:43.085Z,11.02
2018-04-07T01:35:11.467Z,6.35
2018-04-07T01:37:40.047Z,4.25
2018-04-07T01:40:08.450Z,9.32
2018-04-07T01:42:37.009Z,4.05
2018-04-07T01:45:08.316Z,5.15
2018-04-07T01:47:36.734Z,7.05
2018-04-07T01:50:05.119Z,4.40
2018-04-07T01:52:34.803Z,3.00
2018-04-07T01:55:03.160Z,4.47
2018-04-07T01:57:31.576Z,7.72
2018-04-07T02:00:00.874Z,7.22
2018-04-07T02:02:34.064Z,8.27
2018-04-07T02:05:02.811Z,3.62
2018-04-07T02:07:32.352Z,8.30
2018-04-07T02:10:00.724Z,4.70
2018-04-07T02:12:30.411Z,9.15
2018-04-07T02:14:58.826Z,5.40
2018-04-07T02:17:28.367Z,5.57
2018-04-07T02:19:56.914Z,3.03
2018-04-07T02:22:25.333Z,5.60
2018-04-07T02:24:53.786Z,6.00
2018-04-07T02:27:22.357Z,7.82
2018-04-07T02:29:50.725Z,4.85
2018-04-07T02:32:19.193Z,6.37
2018-04-07T02:34:48.392Z,8.32
2018-04-07T02:37:16.777Z,13.48
2018-04-07T02:39:45.155Z,11.52
2018-04-07T02:42:13.709Z,6.68
2018-04-07T02:44:42.135Z,4.80
2018-04-07T02:47:10.531Z,7.12
2018-04-07T02:49:41.835Z,5.35
2018-04-07T02:52:10.170Z,4.70
2018-04-07T02:54:38.724Z,5.85
2018-04-07T02:57:07.308Z,4.82
2018-04-07T02:59:35.726Z,9.60
2018-04-07T03:02:04.175Z,9.13
2018-04-07T03:04:32.570Z,9.23
2018-04-07T03:07:00.995Z,6.22
2018-04-07T03:09:29.545Z,5.18
2018-04-07T03:11:58.003Z,4.85
2018-04-07T03:14:26.395Z,4.57
2018-04-07T03:16:54.928Z,3.83
2018-04-07T03:19:23.521Z,5.10
2018-04-07T03:21:52.146Z,11.63
2018-04-07T03:24:20.582Z,10.70
2018-04-07T03:26:49.877Z,3.92
2018-04-07T03:29:18.287Z,2.17
2018-04-07T03:31:47.436Z,6.03
2018-04-07T03:34:16.080Z,12.73
2018-04-07T03:36:44.834Z,5.93
2018-04-07T03:39:13.340Z,5.75
2018-04-07T03:41:42.001Z,3.25
2018-04-07T03:44:10.400Z,5.40
2018-04-07T03:46:38.735Z,6.78
2018-04-07T03:49:07.125Z,3.25
2018-04-07T03:51:35.824Z,4.18
2018-04-07T03:54:04.227Z,6.35
2018-04-07T03:56:33.401Z,6.85
2018-04-07T03:59:01.979Z,4.78
2018-04-07T04:01:30.755Z,6.30
2018-04-07T04:04:00.786Z,4.93
2018-04-07T04:06:29.255Z,7.12
2018-04-07T04:08:57.910Z,5.65
2018-04-07T04:11:26.485Z,8.30
2018-04-07T04:13:55.421Z,8.07
2018-04-07T04:16:24.010Z,4.60
2018-04-07T04:18:52.383Z,3.60
2018-04-07T04:21:20.831Z,9.32
2018-04-07T04:23:49.542Z,4.85
2018-04-07T04:26:18.020Z,9.85
2018-04-07T04:28:46.398Z,2.95
2018-04-07T04:31:14.834Z,6.82
2018-04-07T04:33:43.835Z,5.32
2018-04-07T04:36:12.194Z,10.43
2018-04-07T04:38:40.560Z,4.10
2018-04-07T04:41:08.956Z,2.37
2018-04-07T04:43:37.371Z,13.65
2018-04-07T04:46:05.726Z,8.23
2018-04-07T04:48:34.997Z,6.28
2018-04-07T04:51:03.535Z,12.95
2018-04-07T04:53:32.686Z,17.73
2018-04-07T04:56:01.942Z,9.18
2018-04-07T04:58:30.324Z,4.90
2018-04-07T05:00:59.526Z,5.65
2018-04-07T05:03:28.068Z,18.15
2018-04-07T05:05:56.490Z,2.87
2018-04-07T05:08:25.345Z,3.25
2018-04-07T05:10:53.954Z,5.12
2018-04-07T05:13:22.328Z,5.18
2018-04-07T05:15:50.979Z,4.78
2018-04-07T05:18:20.316Z,10.45
2018-04-07T05:20:48.673Z,3.00
2018-04-07T05:23:17.051Z,9.13
2018-04-07T05:25:45.488Z,8.32
2018-04-07T05:28:13.862Z,5.30
2018-04-07T05:30:42.220Z,4.53
2018-04-07T05:33:12.750Z,8.55
2018-04-07T05:35:41.117Z,11.65
2018-04-07T05:38:10.257Z,9.60
2018-04-07T05:40:38.772Z,6.70
2018-04-07T05:43:08.255Z,3.05
2018-04-07T05:45:36.803Z,9.07
2018-04-07T05:48:05.981Z,3.30
2018-04-07T05:50:34.371Z,6.70
2018-04-07T05:53:03.736Z,7.68
2018-04-07T05:55:32.233Z,5.68
2018-04-07T05:58:00.725Z,9.32
2018-04-07T06:00:29.345Z,8.65
2018-04-07T06:02:58.555Z,18.73
2018-04-07T06:05:27.086Z,6.95
2018-04-07T06:07:55.772Z,6.62
2018-04-07T06:10:24.769Z,6.32
2018-04-07T06:12:53.984Z,6.15
2018-04-07T06:15:22.540Z,4.47
2018-04-07T06:17:52.671Z,6.50
2018-04-07T06:20:21.208Z,6.78
2018-04-07T06:22:49.706Z,7.12
2018-04-07T06:25:18.125Z,11.15
2018-04-07T06:27:46.493Z,4.93
2018-04-07T06:30:15.478Z,3.83
2018-04-07T06:32:44.680Z,2.97
2018-04-07T06:35:13.902Z,8.73
2018-04-07T06:37:42.507Z,5.15
2018-04-07T06:40:11.006Z,5.72
2018-04-07T06:42:39.497Z,5.97
2018-04-07T06:45:08.166Z,6.15
2018-04-07T06:47:38.649Z,11.00
2018-04-07T06:50:07.184Z,9.63
2018-04-07T06:52:35.608Z,6.57
2018-04-07T06:55:04.210Z,6.10
2018-04-07T06:57:32.603Z,13.43
2018-04-07T07:00:01.351Z,5.60
2018-04-07T07:02:31.255Z,10.32
2018-04-07T07:04:59.751Z,6.55
2018-04-07T07:07:28.185Z,10.00
2018-04-07T07:09:57.500Z,19.52
2018-04-07T07:12:26.325Z,10.77
2018-04-07T07:14:55.138Z,3.30
2018-04-07T07:17:23.886Z,12.60
2018-04-07T07:19:52.298Z,4.60
2018-04-07T07:22:20.665Z,8.80
2018-04-07T07:24:49.328Z,5.10
2018-04-07T07:27:17.813Z,12.77
2018-04-07T07:29:46.340Z,10.20
2018-04-07T07:32:15.707Z,3.65
2018-04-07T07:34:44.125Z,6.00
2018-04-07T07:37:12.678Z,9.60
2018-04-07T07:39:41.157Z,7.53
2018-04-07T07:42:09.651Z,8.90
2018-04-07T07:44:39.678Z,8.27
2018-04-07T07:47:08.575Z,9.02
2018-04-07T07:49:37.148Z,5.50
2018-04-07T07:52:05.685Z,9.63
2018-04-07T07:54:34.967Z,9.45
2018-04-07T07:57:05.659Z,9.02
2018-04-07T07:59:34.353Z,11.02
2018-04-07T08:02:03.148Z,9.63
2018-04-07T08:04:31.728Z,4.93
2018-04-07T08:07:00.438Z,9.48
2018-04-07T08:09:29.067Z,8.57
2018-04-07T08:11:58.028Z,9.88
2018-04-07T08:14:26.964Z,14.98
2018-04-07T08:16:55.854Z,11.00
2018-04-07T08:19:24.658Z,13.40
2018-04-07T08:21:53.145Z,7.47
2018-04-07T08:24:21.604Z,20.15
2018-04-07T08:26:50.063Z,8.10
2018-04-07T08:29:18.603Z,5.05
2018-04-07T08:31:47.114Z,8.88
2018-04-07T08:34:15.593Z,9.32
2018-04-07T08:39:18.912Z,6.15
2018-04-07T08:41:47.269Z,7.47
2018-04-07T08:44:15.655Z,10.00
2018-04-07T08:46:44.538Z,10.80
2018-04-07T08:49:12.909Z,8.83
2018-04-07T08:51:41.459Z,14.43
2018-04-07T08:54:10.651Z,6.93
2018-04-07T08:56:39.456Z,8.77
2018-04-07T08:59:07.921Z,8.60
2018-04-07T09:01:36.652Z,4.60
2018-04-07T09:04:05.595Z,8.83
2018-04-07T09:06:34.144Z,11.07
2018-04-07T09:09:04.581Z,37.93
2018-04-07T09:11:33.376Z,9.37
2018-04-07T09:14:03.003Z,8.20
2018-04-07T09:16:32.275Z,7.80
2018-04-07T09:19:00.740Z,10.47
2018-04-07T09:21:31.404Z,10.83
2018-04-07T09:24:00.432Z,10.63
2018-04-07T09:26:28.910Z,18.77
2018-04-07T09:28:58.523Z,9.10
2018-04-07T09:31:28.065Z,10.43
2018-04-07T09:33:56.607Z,7.43
2018-04-07T09:36:25.204Z,10.37
2018-04-07T09:38:54.496Z,7.30
2018-04-07T09:41:22.883Z,10.77
2018-04-07T09:43:51.420Z,6.43
2018-04-07T09:46:20.546Z,14.37
2018-04-07T09:48:50.693Z,9.30
2018-04-07T09:51:22.944Z,10.03
2018-04-07T09:53:51.327Z,11.40
2018-04-07T09:56:19.843Z,7.70
2018-04-07T09:58:49.102Z,7.90
2018-04-07T10:01:17.496Z,10.40
2018-04-07T10:03:46.010Z,11.83
2018-04-07T10:06:14.534Z,12.63
2018-04-07T10:08:42.936Z,12.10
2018-04-07T10:11:11.415Z,14.73
2018-04-07T10:13:40.196Z,13.73
2018-04-07T10:16:08.913Z,12.10
2018-04-07T10:18:37.487Z,9.87
2018-04-07T10:21:06.117Z,16.33
2018-04-07T10:23:34.697Z,13.17
2018-04-07T10:26:03.591Z,10.50
2018-04-07T10:28:32.449Z,9.83
2018-04-07T10:31:00.906Z,10.03
2018-04-07T10:33:29.686Z,8.47
2018-04-07T10:35:58.484Z,10.80
2018-04-07T10:38:27.477Z,18.10
2018-04-07T10:40:55.964Z,15.77
2018-04-07T10:43:24.702Z,9.73
2018-04-07T10:45:53.110Z,13.53
2018-04-07T10:48:21.488Z,25.00
2018-04-07T10:50:49.938Z,11.03
2018-04-07T10:53:18.416Z,8.67
2018-04-07T10:55:46.991Z,23.70
2018-04-07T10:58:15.767Z,17.50
2018-04-07T11:00:44.653Z,14.57
2018-04-07T11:03:13.306Z,13.70
2018-04-07T11:05:41.781Z,16.63
2018-04-07T11:08:10.179Z,12.70
2018-04-07T11:10:38.625Z,17.97
2018-04-07T11:13:07.076Z,27.20
2018-04-07T11:15:36.223Z,12.60
2018-04-07T11:18:04.755Z,9.23
2018-04-07T11:20:33.391Z,11.53
2018-04-07T11:23:01.972Z,14.03
2018-04-07T11:25:31.587Z,10.83
2018-04-07T11:28:00.275Z,17.03
2018-04-07T11:30:28.857Z,13.20
2018-04-07T11:32:57.517Z,12.47
2018-04-07T11:35:26.605Z,14.33
2018-04-07T11:37:55.079Z,10.87
2018-04-07T11:40:23.478Z,10.60
2018-04-07T11:42:52.586Z,11.73
2018-04-07T11:45:20.964Z,9.70
2018-04-07T11:47:49.331Z,13.60
2018-04-07T11:50:19.694Z,10.83
2018-04-07T11:52:48.069Z,12.10
2018-04-07T11:55:16.500Z,9.70
2018-04-07T11:57:44.987Z,15.73
2018-04-07T12:00:13.397Z,10.97
2018-04-07T12:02:41.815Z,11.23
2018-04-07T12:05:11.706Z,10.33
2018-04-07T12:07:40.188Z,10.57
2018-04-07T12:10:08.619Z,13.20
2018-04-07T12:12:37.191Z,14.43
2018-04-07T12:15:05.657Z,14.10
2018-04-07T12:17:34.234Z,10.67
2018-04-07T12:20:04.630Z,8.17
2018-04-07T12:22:33.144Z,11.20
2018-04-07T12:25:02.917Z,13.17
2018-04-07T12:27:31.674Z,12.10
2018-04-07T12:30:00.138Z,12.90
2018-04-07T12:32:28.682Z,14.10
2018-04-07T12:34:59.165Z,11.57
2018-04-07T12:37:27.782Z,13.60
2018-04-07T12:39:56.458Z,14.50
2018-04-07T12:42:25.769Z,11.83
2018-04-07T12:44:54.163Z,16.77
2018-04-07T12:47:22.536Z,11.70
2018-04-07T12:49:50.911Z,15.40
2018-04-07T12:52:19.725Z,14.80
2018-04-07T12:54:48.163Z,13.87
2018-04-07T12:57:16.947Z,13.93
2018-04-07T12:59:46.266Z,19.80
2018-04-07T13:02:14.628Z,10.03
2018-04-07T13:04:43.008Z,12.73
2018-04-07T13:07:12.456Z,14.87
2018-04-07T13:09:42.301Z,15.20
2018-04-07T13:12:11.367Z,10.20
2018-04-07T13:14:39.839Z,13.40
2018-04-07T13:17:08.280Z,13.43
2018-04-07T13:19:37.626Z,12.13
2018-04-07T13:22:06.109Z,13.60
2018-04-07T13:24:34.929Z,15.70
2018-04-07T13:27:03.542Z,15.37
2018-04-07T13:29:32.012Z,12.67
2018-04-07T13:32:00.640Z,14.30
2018-04-07T13:34:29.505Z,11.03
2018-04-07T13:36:58.180Z,14.27
2018-04-07T13:39:26.686Z,15.77
2018-04-07T13:41:55.127Z,16.63
2018-04-07T13:44:23.495Z,13.17
2018-04-07T13:46:51.864Z,17.20
2018-04-07T13:49:20.518Z,13.90
2018-04-07T13:51:48.923Z,14.60
2018-04-07T13:54:17.477Z,17.87
2018-04-07T13:56:46.617Z,14.80
2018-04-07T13:59:14.997Z,11.07
2018-04-07T14:01:43.439Z,21.97
2018-04-07T14:04:12.060Z,22.00
2018-04-07T14:06:40.449Z,11.37
2018-04-07T14:09:08.991Z,14.53
2018-04-07T14:11:39.550Z,14.77
2018-04-07T14:14:08.214Z,25.93
2018-04-07T14:16:36.983Z,16.20
2018-04-07T14:19:07.550Z,13.47
2018-04-07T14:21:36.402Z,16.60
2018-04-07T14:24:04.836Z,17.63
2018-04-07T14:26:34.402Z,15.87
2018-04-07T14:29:02.813Z,15.90
2018-04-07T14:31:31.430Z,19.47
2018-04-07T14:33:59.868Z,19.20
2018-04-07T14:36:28.320Z,14.20
2018-04-07T14:38:57.183Z,15.50
2018-04-07T14:41:25.593Z,17.07
2018-04-07T14:43:53.991Z,19.77
2018-04-07T14:46:22.494Z,13.67
2018-04-07T14:48:50.933Z,15.03
2018-04-07T14:51:19.806Z,17.87
2018-04-07T14:53:48.276Z,18.83
2018-04-07T14:56:17.166Z,14.17
2018-04-07T14:58:45.537Z,17.03
2018-04-07T15:01:13.938Z,14.90
2018-04-07T15:03:43.149Z,15.17
2018-04-07T15:06:12.015Z,15.83
2018-04-07T15:08:40.422Z,20.03
2018-04-07T15:11:08.851Z,18.23
2018-04-07T15:13:37.283Z,14.87
2018-04-07T15:16:05.936Z,13.23
2018-04-07T15:18:35.628Z,15.43
2018-04-07T15:21:04.111Z,11.43
2018-04-07T15:23:32.487Z,17.07
2018-04-07T15:26:02.602Z,14.57
2018-04-07T15:28:31.907Z,14.40
2018-04-07T15:31:00.472Z,16.07
2018-04-07T15:33:30.371Z,17.27
2018-04-07T15:36:01.023Z,16.97
2018-04-07T15:38:32.801Z,15.53
2018-04-07T15:41:01.170Z,16.60
2018-04-07T15:43:30.348Z,18.10
2018-04-07T15:45:58.771Z,11.73
2018-04-07T15:48:27.160Z,18.40
2018-04-07T15:50:56.668Z,26.33
2018-04-07T15:53:25.092Z,18.17
2018-04-07T15:55:54.388Z,19.77
2018-04-07T15:58:22.796Z,14.83
2018-04-07T16:00:52.066Z,16.50
2018-04-07T16:03:20.539Z,18.80
2018-04-07T16:05:48.980Z,16.57
2018-04-07T16:08:18.663Z,15.23
2018-04-07T16:10:47.680Z,18.40
2018-04-07T16:13:16.553Z,18.53
2018-04-07T16:15:46.548Z,17.83
2018-04-07T16:20:49.973Z,19.50
2018-04-07T16:23:18.454Z,26.57
2018-04-07T16:25:46.907Z,20.40
2018-04-07T16:28:15.327Z,29.77
2018-04-07T16:30:44.732Z,22.03
2018-04-07T16:33:13.317Z,26.43
2018-04-07T16:35:42.011Z,21.23
2018-04-07T16:38:11.697Z,19.20
2018-04-07T16:40:40.226Z,22.43
2018-04-07T16:43:12.895Z,23.73
2018-04-07T16:45:48.801Z,22.77
2018-04-07T16:48:21.131Z,17.07
2018-04-07T16:50:59.452Z,26.73
2018-04-07T16:53:28.456Z,16.90
2018-04-07T16:55:56.885Z,15.63
2018-04-07T16:58:25.459Z,17.70
2018-04-07T17:00:53.878Z,21.70
2018-04-07T17:03:23.230Z,21.40
2018-04-07T17:05:51.909Z,21.07
2018-04-07T17:08:21.534Z,15.80
2018-04-07T17:10:50.007Z,18.10
2018-04-07T17:13:18.482Z,19.20
2018-04-07T17:15:48.102Z,23.60
2018-04-07T17:18:16.932Z,18.60
2018-04-07T17:20:45.329Z,18.93
2018-04-07T17:23:13.889Z,18.10
2018-04-07T17:25:42.260Z,18.13
2018-04-07T17:28:13.454Z,18.50
2018-04-07T17:30:42.266Z,19.20
2018-04-07T17:33:10.894Z,20.90
2018-04-07T17:35:39.812Z,17.23
2018-04-07T17:38:08.605Z,20.53
2018-04-07T17:40:38.370Z,18.60
2018-04-07T17:43:07.999Z,19.97
2018-04-07T17:45:37.542Z,24.50
2018-04-07T17:48:07.952Z,16.87
2018-04-07T17:50:37.480Z,23.00
2018-04-07T17:53:06.526Z,28.17
2018-04-07T17:55:34.904Z,26.33
2018-04-07T17:58:03.685Z,31.43
2018-04-07T18:00:32.127Z,22.00
2018-04-07T18:03:01.352Z,31.10
2018-04-07T18:05:29.904Z,24.10
2018-04-07T18:07:58.444Z,25.50
2018-04-07T18:10:27.698Z,18.60
2018-04-07T18:12:56.182Z,46.43
2018-04-07T18:15:25.853Z,20.67
2018-04-07T18:17:54.625Z,22.93
2018-04-07T18:20:22.966Z,25.23
2018-04-07T18:22:52.144Z,23.30
2018-04-07T18:25:20.497Z,20.43
2018-04-07T18:27:49.252Z,21.13
2018-04-07T18:30:17.951Z,26.37
2018-04-07T18:32:46.950Z,30.10
2018-04-07T18:35:15.351Z,23.07
2018-04-07T18:37:43.914Z,25.20
2018-04-07T18:40:12.503Z,25.73
2018-04-07T18:42:41.088Z,27.93
2018-04-07T18:45:09.612Z,19.80
2018-04-07T18:47:38.775Z,32.17
2018-04-07T18:50:07.259Z,32.13
2018-04-07T18:52:36.154Z,27.17
2018-04-07T18:55:04.572Z,24.57
2018-04-07T18:57:32.967Z,28.60
2018-04-07T19:00:01.379Z,24.23
2018-04-07T19:02:29.805Z,38.20
2018-04-07T19:04:58.286Z,23.70
2018-04-07T19:07:28.445Z,26.47
2018-04-07T19:09:56.842Z,24.47
2018-04-07T19:12:25.227Z,25.20
2018-04-07T19:14:53.752Z,25.90
2018-04-07T19:17:22.122Z,26.93
2018-04-07T19:19:50.657Z,22.07
2018-04-07T19:22:19.657Z,23.93
2018-04-07T19:24:48.176Z,27.23
2018-04-07T19:27:16.562Z,24.20
2018-04-07T19:29:45.427Z,19.73
2018-04-07T19:32:14.001Z,20.83
2018-04-07T19:34:42.584Z,18.00
2018-04-07T19:37:11.917Z,27.53
2018-04-07T19:39:40.580Z,26.03
2018-04-07T19:42:09.576Z,37.73
2018-04-07T19:44:38.562Z,30.43
2018-04-07T19:47:07.188Z,33.90
2018-04-07T19:49:36.641Z,35.17
2018-04-07T19:52:06.262Z,36.80
2018-04-07T19:54:34.729Z,38.57
2018-04-07T19:57:03.479Z,53.87
2018-04-07T19:59:32.830Z,55.63
2018-04-07T20:02:01.264Z,41.93
2018-04-07T20:04:29.740Z,33.17
2018-04-07T20:06:59.670Z,19.50
2018-04-07T20:09:28.082Z,29.00
2018-04-07T20:11:56.454Z,21.33
2018-04-07T20:14:25.874Z,18.43
2018-04-07T20:16:54.848Z,18.47
2018-04-07T20:19:23.471Z,29.70
2018-04-07T20:21:52.169Z,20.53
2018-04-07T20:24:20.732Z,18.17
2018-04-07T20:26:50.536Z,18.67
2018-04-07T20:29:20.135Z,15.20
2018-04-07T20:31:48.641Z,20.87
2018-04-07T20:34:17.144Z,16.33
2018-04-07T20:36:45.879Z,20.33
2018-04-07T20:39:15.256Z,17.50
2018-04-07T20:41:43.816Z,18.20
2018-04-07T20:44:12.500Z,18.17
2018-04-07T20:46:41.496Z,23.87
2018-04-07T20:49:10.127Z,29.87
2018-04-07T20:51:39.797Z,36.43
2018-04-07T20:54:08.623Z,36.90
2018-04-07T20:56:37.113Z,30.57
2018-04-07T20:59:06.503Z,23.83
2018-04-07T21:01:34.926Z,24.80
2018-04-07T21:04:03.286Z,16.67
2018-04-07T21:06:32.462Z,24.53
2018-04-07T21:09:00.889Z,21.90
2018-04-07T21:11:29.280Z,25.80
2018-04-07T21:13:57.811Z,22.97
2018-04-07T21:16:26.210Z,21.50
2018-04-07T21:18:54.579Z,17.30
2018-04-07T21:21:23.179Z,23.27
2018-04-07T21:23:51.741Z,17.43
2018-04-07T21:26:20.432Z,13.47
2018-04-07T21:28:50.016Z,18.17
2018-04-07T21:31:20.034Z,21.43
2018-04-07T21:33:48.515Z,20.47
2018-04-07T21:36:17.036Z,21.07
2018-04-07T21:38:45.789Z,16.47
2018-04-07T21:41:14.381Z,22.17
2018-04-07T21:43:42.988Z,22.83
2018-04-07T21:46:11.667Z,16.57
2018-04-07T21:48:40.442Z,24.07
2018-04-07T21:51:09.045Z,16.13
2018-04-07T21:53:37.720Z,19.90
2018-04-07T21:56:06.173Z,23.83
2018-04-07T21:58:34.774Z,20.27
2018-04-07T22:01:03.158Z,14.43
2018-04-07T22:03:31.614Z,16.83
2018-04-07T22:06:00.548Z,14.40
2018-04-07T22:08:28.902Z,17.83
2018-04-07T22:10:57.293Z,16.43
2018-04-07T22:13:25.999Z,16.60
2018-04-07T22:15:54.565Z,15.60
2018-04-07T22:18:23.014Z,17.37
2018-04-07T22:20:52.156Z,15.10
2018-04-07T22:23:20.648Z,17.17
2018-04-07T22:25:49.405Z,18.87
2018-04-07T22:28:17.983Z,17.57
2018-04-07T22:30:46.465Z,22.63
2018-04-07T22:33:14.848Z,17.23
2018-04-07T22:35:44.716Z,12.97
2018-04-07T22:38:13.330Z,16.97
2018-04-07T22:40:42.110Z,18.17
2018-04-07T22:43:10.646Z,14.03
2018-04-07T22:45:39.414Z,21.57
2018-04-07T22:48:07.890Z,14.93
2018-04-07T22:50:36.424Z,19.63
2018-04-07T22:53:04.822Z,19.07
2018-04-07T22:55:33.176Z,19.83
2018-04-07T22:58:01.679Z,19.50
2018-04-07T23:00:32.651Z,15.60
2018-04-07T23:03:01.096Z,20.83
2018-04-07T23:05:30.125Z,88.57
2018-04-07T23:07:58.514Z,16.80
2018-04-07T23:10:26.905Z,18.90
2018-04-07T23:12:56.498Z,18.20
2018-04-07T23:15:24.866Z,22.53
2018-04-07T23:17:53.249Z,16.60
2018-04-07T23:20:21.896Z,18.87
2018-04-07T23:22:50.342Z,20.40
2018-04-07T23:25:18.721Z,20.80
2018-04-07T23:27:47.259Z,19.73
2018-04-07T23:30:15.712Z,17.70
2018-04-07T23:32:44.126Z,20.93
2018-04-07T23:35:12.969Z,27.70
2018-04-07T23:37:41.619Z,19.97
2018-04-07T23:40:10.060Z,19.13
2018-04-07T23:42:38.483Z,20.60
2018-04-07T23:45:06.855Z,19.20
2018-04-07T23:47:35.209Z,44.30
2018-04-07T23:50:03.681Z,30.67
2018-04-07T23:52:32.061Z,39.23
2018-04-07T23:55:00.659Z,32.50
2018-04-07T23:57:29.042Z,16.00
2018-04-07T23:59:57.411Z,21.50
